Cedar Rapids, Iowa
Current Conditions -  °F | °C
As of 3:11 PM on Monday 24 Nov 2014 (Local Time) from KCID Reporting Station
Light Snow Light Snow  
Wind Chill:   Ceiling: 1400
Heat Index: 24°   Visibility: 4mi
Dew Point: 22°   Wind: 23mph
Humidity: 91%   Direction: 290°WNW
Pressure: 29.63"   Gusts: 29mph
Location:  41.98°N, 91.67°W
Report Text: KCID 242111Z 29020G25KT 4SM -SN BR BKN014 OVC021 M04/M06 A2963 RMK AO2 PK WND 30026/2057 P0000 T10441056
Loading
Personal Weather Stations






























Interactive Weather Map New forecast layout! Learn more

10-Day Weather Forecast

Advertisements
Track Severe Weather on mobile